Time,TemperatureF,DewpointF,PressureIn,WindDirection,WindDirectionDegrees,WindSpeedMPH,WindSpeedGustMPH,Humidity,HourlyPrecipIn,Conditions,Clouds,dailyrainin,SoftwareType,DateUTC
2013-06-04 00:01:00,61.3,45.5,29.88,North,0,3.1,5.4,56,0.00,,,0.00,meteobridge,2013-06-04 04:01:00,
2013-06-04 00:02:00,61.3,45.5,29.88,North,0,3.1,3.1,56,0.00,,,0.00,meteobridge,2013-06-04 04:02:00,
2013-06-04 00:05:00,60.4,45.1,29.88,North,0,7.6,7.6,57,0.00,,,0.00,meteobridge,2013-06-04 04:05:00,
2013-06-04 00:11:00,60.3,45.0,29.88,West,270,6.0,6.0,57,0.00,,,0.00,meteobridge,2013-06-04 04:11:00,
2013-06-04 00:13:00,60.3,45.0,29.89,North,0,4.5,6.0,57,0.00,,,0.00,meteobridge,2013-06-04 04:13:00,
2013-06-04 00:19:00,59.9,45.1,29.89,North,0,3.8,5.4,58,0.00,,,0.00,meteobridge,2013-06-04 04:19:00,
2013-06-04 00:24:00,59.5,45.1,29.89,West,270,2.2,3.1,59,0.00,,,0.00,meteobridge,2013-06-04 04:24:00,
2013-06-04 00:30:00,59.0,44.2,29.89,NW,315,3.1,3.8,58,0.00,,,0.00,meteobridge,2013-06-04 04:30:00,
2013-06-04 00:36:00,58.8,44.6,29.89,West,270,3.8,8.3,59,0.00,,,0.00,meteobridge,2013-06-04 04:36:00,
2013-06-04 00:41:00,58.8,44.6,29.89,North,0,8.3,8.3,59,0.00,,,0.00,meteobridge,2013-06-04 04:41:00,
2013-06-04 00:47:00,58.5,43.7,29.89,NW,315,8.3,8.3,58,0.00,,,0.00,meteobridge,2013-06-04 04:47:00,
2013-06-04 00:52:00,58.3,43.5,29.90,North,0,8.3,8.3,58,0.00,,,0.00,meteobridge,2013-06-04 04:52:00,
2013-06-04 00:58:00,57.7,43.0,29.90,North,0,4.5,4.5,58,0.00,,,0.00,meteobridge,2013-06-04 04:58:00,
2013-06-04 01:04:00,57.6,43.3,29.89,East,90,3.8,8.3,59,0.00,,,0.00,meteobridge,2013-06-04 05:04:00,
2013-06-04 01:09:00,57.2,43.0,29.90,West,270,6.9,6.9,59,0.00,,,0.00,meteobridge,2013-06-04 05:09:00,
2013-06-04 01:15:00,57.2,42.6,29.89,NW,315,4.5,8.3,58,0.00,,,0.00,meteobridge,2013-06-04 05:15:00,
2013-06-04 01:21:00,56.8,42.6,29.89,North,0,6.0,6.9,59,0.00,,,0.00,meteobridge,2013-06-04 05:21:00,
2013-06-04 01:26:00,57.0,42.8,29.90,NW,315,8.3,9.8,59,0.00,,,0.00,meteobridge,2013-06-04 05:26:00,
2013-06-04 01:32:00,56.8,42.6,29.90,North,0,7.6,7.6,59,0.00,,,0.00,meteobridge,2013-06-04 05:32:00,
2013-06-04 01:38:00,56.3,42.6,29.90,NW,315,4.5,4.5,60,0.00,,,0.00,meteobridge,2013-06-04 05:38:00,
2013-06-04 01:43:00,56.5,42.8,29.90,North,0,4.5,6.0,60,0.00,,,0.00,meteobridge,2013-06-04 05:43:00,
2013-06-04 01:49:00,55.9,42.3,29.91,North,0,5.4,6.0,60,0.00,,,0.00,meteobridge,2013-06-04 05:49:00,
2013-06-04 01:54:00,56.5,42.3,29.91,West,270,6.9,8.3,59,0.00,,,0.00,meteobridge,2013-06-04 05:54:00,
2013-06-04 02:00:00,56.5,42.3,29.91,West,270,8.3,8.3,59,0.00,,,0.00,meteobridge,2013-06-04 06:00:00,
2013-06-04 02:06:00,56.5,41.9,29.90,NW,315,5.4,9.8,58,0.00,,,0.00,meteobridge,2013-06-04 06:06:00,
2013-06-04 02:11:00,56.3,41.7,29.91,North,0,4.5,11.4,58,0.00,,,0.00,meteobridge,2013-06-04 06:11:00,
2013-06-04 02:17:00,56.1,41.5,29.91,North,0,13.6,13.6,58,0.00,,,0.00,meteobridge,2013-06-04 06:17:00,
2013-06-04 02:23:00,56.3,41.2,29.91,West,270,6.9,8.3,57,0.00,,,0.00,meteobridge,2013-06-04 06:23:00,
2013-06-04 02:28:00,56.1,41.2,29.91,North,0,8.3,9.8,57,0.00,,,0.00,meteobridge,2013-06-04 06:28:00,
2013-06-04 02:34:00,56.1,41.2,29.91,North,0,11.4,11.4,57,0.00,,,0.00,meteobridge,2013-06-04 06:34:00,
2013-06-04 02:40:00,56.8,41.4,29.91,South,180,13.6,15.2,56,0.00,,,0.00,meteobridge,2013-06-04 06:40:00,
2013-06-04 02:45:00,56.5,41.0,29.91,West,270,7.6,10.7,56,0.00,,,0.00,meteobridge,2013-06-04 06:45:00,
2013-06-04 02:52:00,56.5,41.0,29.91,NW,315,13.6,15.9,56,0.00,,,0.00,meteobridge,2013-06-04 06:52:00,
2013-06-04 02:57:00,56.1,41.2,29.91,North,0,12.1,12.1,57,0.00,,,0.00,meteobridge,2013-06-04 06:57:00,
2013-06-04 03:03:00,56.1,41.2,29.91,NW,315,12.1,12.1,57,0.00,,,0.00,meteobridge,2013-06-04 07:03:00,
2013-06-04 03:08:00,55.8,40.8,29.91,NW,315,7.6,9.2,57,0.00,,,0.00,meteobridge,2013-06-04 07:08:00,
2013-06-04 03:14:00,55.6,40.6,29.91,North,0,14.5,14.5,57,0.00,,,0.00,meteobridge,2013-06-04 07:14:00,
2013-06-04 03:20:00,55.6,40.6,29.91,North,0,8.3,12.1,57,0.00,,,0.00,meteobridge,2013-06-04 07:20:00,
2013-06-04 03:25:00,55.0,40.5,29.90,West,270,4.5,6.0,58,0.00,,,0.00,meteobridge,2013-06-04 07:25:00,
2013-06-04 03:31:00,55.0,41.0,29.91,NW,315,7.6,9.2,59,0.00,,,0.00,meteobridge,2013-06-04 07:31:00,
2013-06-04 03:37:00,54.7,40.6,29.91,NW,315,9.2,10.7,59,0.00,,,0.00,meteobridge,2013-06-04 07:37:00,
2013-06-04 03:42:00,54.9,41.2,29.91,NW,315,9.2,9.2,60,0.00,,,0.00,meteobridge,2013-06-04 07:42:00,
2013-06-04 03:48:00,54.9,41.2,29.91,NE,45,9.2,14.5,60,0.00,,,0.00,meteobridge,2013-06-04 07:48:00,
2013-06-04 03:54:00,54.7,41.0,29.91,North,0,8.3,10.7,60,0.00,,,0.00,meteobridge,2013-06-04 07:54:00,
2013-06-04 03:59:00,54.5,40.8,29.91,NW,315,9.2,9.2,60,0.00,,,0.00,meteobridge,2013-06-04 07:59:00,
2013-06-04 04:05:00,54.3,41.2,29.91,NW,315,6.9,10.7,61,0.00,,,0.00,meteobridge,2013-06-04 08:05:00,
2013-06-04 04:11:00,54.5,41.4,29.91,NW,315,14.5,14.5,61,0.00,,,0.00,meteobridge,2013-06-04 08:11:00,
2013-06-04 04:16:00,54.1,41.0,29.91,North,0,10.7,10.7,61,0.00,,,0.00,meteobridge,2013-06-04 08:16:00,
2013-06-04 04:22:00,54.0,40.8,29.92,West,270,7.6,11.4,61,0.00,,,0.00,meteobridge,2013-06-04 08:22:00,
2013-06-04 04:27:00,53.8,40.6,29.92,North,0,10.7,10.7,61,0.00,,,0.00,meteobridge,2013-06-04 08:27:00,
2013-06-04 04:33:00,54.0,40.8,29.92,North,0,15.2,15.2,61,0.00,,,0.00,meteobridge,2013-06-04 08:33:00,
2013-06-04 04:39:00,53.2,40.6,29.91,NE,45,9.2,9.2,62,0.00,,,0.00,meteobridge,2013-06-04 08:39:00,
2013-06-04 04:44:00,53.2,41.0,29.92,North,0,6.9,11.4,63,0.00,,,0.00,meteobridge,2013-06-04 08:44:00,
2013-06-04 04:50:00,53.2,41.0,29.92,NW,315,7.6,9.8,63,0.00,,,0.00,meteobridge,2013-06-04 08:50:00,
2013-06-04 04:56:00,52.9,40.6,29.92,NW,315,6.0,9.2,63,0.00,,,0.00,meteobridge,2013-06-04 08:56:00,
2013-06-04 05:01:00,52.7,40.5,29.92,North,0,5.4,9.8,63,0.00,,,0.00,meteobridge,2013-06-04 09:01:00,
2013-06-04 05:07:00,52.9,40.6,29.92,East,90,6.9,10.7,63,0.00,,,0.00,meteobridge,2013-06-04 09:07:00,
2013-06-04 05:13:00,52.5,40.6,29.92,North,0,4.5,8.3,64,0.00,,,0.00,meteobridge,2013-06-04 09:13:00,
2013-06-04 05:18:00,52.3,40.5,29.93,West,270,6.0,6.9,64,0.00,,,0.00,meteobridge,2013-06-04 09:18:00,
2013-06-04 05:24:00,52.3,40.5,29.93,NW,315,4.5,9.2,64,0.00,,,0.00,meteobridge,2013-06-04 09:24:00,
2013-06-04 05:29:00,52.0,40.1,29.93,North,0,6.9,6.9,64,0.00,,,0.00,meteobridge,2013-06-04 09:29:00,
2013-06-04 05:35:00,52.2,40.3,29.93,North,0,5.4,6.0,64,0.00,,,0.00,meteobridge,2013-06-04 09:35:00,
2013-06-04 05:41:00,52.2,40.3,29.94,West,270,7.6,7.6,64,0.00,,,0.00,meteobridge,2013-06-04 09:41:00,
2013-06-04 05:46:00,52.3,40.5,29.94,NW,315,7.6,7.6,64,0.00,,,0.00,meteobridge,2013-06-04 09:46:00,
2013-06-04 05:52:00,52.3,40.5,29.94,North,0,6.0,6.0,64,0.00,,,0.00,meteobridge,2013-06-04 09:52:00,
2013-06-04 05:58:00,52.7,40.5,29.94,North,0,5.4,6.0,63,0.00,,,0.00,meteobridge,2013-06-04 09:58:00,
2013-06-04 06:03:00,52.2,40.3,29.94,North,0,2.2,3.8,64,0.00,,,0.00,meteobridge,2013-06-04 10:03:00,
2013-06-04 06:09:00,51.8,40.5,29.94,North,0,2.2,3.8,65,0.00,,,0.00,meteobridge,2013-06-04 10:09:00,
2013-06-04 06:15:00,51.8,40.5,29.94,North,0,5.4,5.4,65,0.00,,,0.00,meteobridge,2013-06-04 10:15:00,
2013-06-04 06:20:00,52.0,40.6,29.95,North,0,1.6,2.2,65,0.00,,,0.00,meteobridge,2013-06-04 10:20:00,
2013-06-04 06:26:00,52.0,40.6,29.95,North,0,2.2,3.8,65,0.00,,,0.00,meteobridge,2013-06-04 10:26:00,
2013-06-04 06:31:00,52.3,41.0,29.95,North,0,3.1,5.4,65,0.00,,,0.00,meteobridge,2013-06-04 10:31:00,
2013-06-04 06:37:00,52.3,41.0,29.96,North,0,3.1,3.1,65,0.00,,,0.00,meteobridge,2013-06-04 10:37:00,
2013-06-04 06:42:00,52.5,41.2,29.95,NW,315,5.4,5.4,65,0.00,,,0.00,meteobridge,2013-06-04 10:42:00,
2013-06-04 06:48:00,52.7,41.2,29.95,North,0,3.8,3.8,65,0.00,,,0.00,meteobridge,2013-06-04 10:48:00,
2013-06-04 06:54:00,53.4,41.5,29.95,NW,315,7.6,8.3,64,0.00,,,0.00,meteobridge,2013-06-04 10:54:00,
2013-06-04 06:59:00,53.6,40.8,29.96,North,0,4.5,6.9,62,0.00,,,0.00,meteobridge,2013-06-04 10:59:00,
2013-06-04 07:05:00,53.8,41.5,29.96,North,0,5.4,5.4,63,0.00,,,0.00,meteobridge,2013-06-04 11:05:00,
2013-06-04 07:10:00,54.0,41.7,29.96,East,90,4.5,4.5,63,0.00,,,0.00,meteobridge,2013-06-04 11:10:00,
2013-06-04 07:16:00,54.3,41.5,29.96,South,180,5.4,6.0,62,0.00,,,0.00,meteobridge,2013-06-04 11:16:00,
2013-06-04 07:22:00,54.9,42.1,29.96,West,270,1.6,6.0,62,0.00,,,0.00,meteobridge,2013-06-04 11:22:00,
2013-06-04 07:27:00,55.6,42.3,29.96,West,270,6.0,6.0,61,0.00,,,0.00,meteobridge,2013-06-04 11:27:00,
2013-06-04 07:33:00,55.9,42.3,29.96,North,0,3.1,3.8,60,0.00,,,0.00,meteobridge,2013-06-04 11:33:00,
2013-06-04 07:39:00,55.9,42.3,29.96,North,0,6.0,6.0,60,0.00,,,0.00,meteobridge,2013-06-04 11:39:00,
2013-06-04 07:44:00,57.0,43.3,29.96,West,270,3.1,3.8,60,0.00,,,0.00,meteobridge,2013-06-04 11:44:00,
2013-06-04 07:50:00,57.2,42.6,29.96,West,270,6.0,6.0,58,0.00,,,0.00,meteobridge,2013-06-04 11:50:00,
2013-06-04 07:56:00,57.2,42.6,29.96,North,0,2.2,6.9,58,0.00,,,0.00,meteobridge,2013-06-04 11:56:00,
2013-06-04 08:01:00,57.2,42.1,29.96,East,90,6.0,9.8,57,0.00,,,0.00,meteobridge,2013-06-04 12:01:00,
2013-06-04 08:07:00,58.1,42.4,29.96,North,0,6.9,11.4,56,0.00,,,0.00,meteobridge,2013-06-04 12:07:00,
2013-06-04 08:13:00,57.7,42.1,29.96,North,0,6.9,6.9,56,0.00,,,0.00,meteobridge,2013-06-04 12:13:00,
2013-06-04 08:18:00,58.5,42.4,29.97,North,0,8.3,8.3,55,0.00,,,0.00,meteobridge,2013-06-04 12:18:00,
2013-06-04 08:24:00,59.7,43.5,29.96,NW,315,9.2,9.2,55,0.00,,,0.00,meteobridge,2013-06-04 12:24:00,
2013-06-04 08:29:00,58.8,43.2,29.96,East,90,7.6,7.6,56,0.00,,,0.00,meteobridge,2013-06-04 12:29:00,
2013-06-04 08:35:00,59.4,43.2,29.96,North,0,3.8,6.9,55,0.00,,,0.00,meteobridge,2013-06-04 12:35:00,
2013-06-04 08:41:00,59.4,43.2,29.96,NW,315,8.3,8.3,55,0.00,,,0.00,meteobridge,2013-06-04 12:41:00,
2013-06-04 08:46:00,58.6,42.4,29.97,North,0,11.4,13.0,55,0.00,,,0.00,meteobridge,2013-06-04 12:46:00,
2013-06-04 08:52:00,59.7,43.0,29.97,NE,45,3.8,6.9,54,0.00,,,0.00,meteobridge,2013-06-04 12:52:00,
2013-06-04 08:58:00,60.3,44.1,29.97,North,0,4.5,6.9,55,0.00,,,0.00,meteobridge,2013-06-04 12:58:00,
2013-06-04 09:03:00,61.3,44.1,29.97,NW,315,9.2,9.2,53,0.00,,,0.00,meteobridge,2013-06-04 13:03:00,
2013-06-04 09:09:00,60.1,43.3,29.97,North,0,6.0,11.4,54,0.00,,,0.00,meteobridge,2013-06-04 13:09:00,
2013-06-04 09:15:00,60.8,43.0,29.97,South,180,6.0,7.6,52,0.00,,,0.00,meteobridge,2013-06-04 13:15:00,
2013-06-04 09:20:00,60.3,43.0,29.98,North,0,11.4,12.1,53,0.00,,,0.00,meteobridge,2013-06-04 13:20:00,
2013-06-04 09:26:00,59.7,42.6,29.98,North,0,15.2,15.2,53,0.00,,,0.00,meteobridge,2013-06-04 13:26:00,
2013-06-04 09:31:00,59.7,42.1,29.99,North,0,9.8,16.8,52,0.00,,,0.00,meteobridge,2013-06-04 13:31:00,
2013-06-04 09:36:00,59.2,41.0,29.98,North,0,12.1,15.2,51,0.00,,,0.00,meteobridge,2013-06-04 13:36:00,
2013-06-04 09:42:00,61.0,43.2,29.98,NW,315,5.4,6.9,52,0.00,,,0.00,meteobridge,2013-06-04 13:42:00,
2013-06-04 09:48:00,61.0,43.2,29.98,NW,315,17.4,17.4,52,0.00,,,0.00,meteobridge,2013-06-04 13:48:00,
2013-06-04 09:53:00,60.1,43.0,29.98,NW,315,6.9,9.8,53,0.00,,,0.00,meteobridge,2013-06-04 13:53:00,
2013-06-04 09:59:00,62.2,44.4,29.98,West,270,6.0,9.8,52,0.00,,,0.00,meteobridge,2013-06-04 13:59:00,
2013-06-04 10:05:00,60.8,42.6,29.98,North,0,12.1,15.9,51,0.00,,,0.00,meteobridge,2013-06-04 14:05:00,
2013-06-04 10:10:00,61.9,44.1,29.98,North,0,8.3,9.2,52,0.00,,,0.00,meteobridge,2013-06-04 14:10:00,
2013-06-04 10:16:00,61.0,42.3,29.99,NW,315,10.7,10.7,50,0.00,,,0.00,meteobridge,2013-06-04 14:16:00,
2013-06-04 10:21:00,61.2,41.9,29.99,East,90,8.3,15.2,49,0.00,,,0.00,meteobridge,2013-06-04 14:21:00,
2013-06-04 10:27:00,61.9,43.5,29.99,West,270,7.6,13.6,51,0.00,,,0.00,meteobridge,2013-06-04 14:27:00,
2013-06-04 10:32:00,62.8,43.3,29.99,West,270,10.7,10.7,49,0.00,,,0.00,meteobridge,2013-06-04 14:32:00,
2013-06-04 10:38:00,61.9,43.0,29.99,North,0,12.1,12.1,50,0.00,,,0.00,meteobridge,2013-06-04 14:38:00,
2013-06-04 10:43:00,62.1,43.2,29.99,North,0,6.9,9.2,50,0.00,,,0.00,meteobridge,2013-06-04 14:43:00,
2013-06-04 10:49:00,64.0,45.5,29.98,NW,315,0.7,9.8,51,0.00,,,0.00,meteobridge,2013-06-04 14:49:00,
2013-06-04 10:55:00,62.2,42.8,29.99,North,0,10.7,13.0,49,0.00,,,0.00,meteobridge,2013-06-04 14:55:00,
2013-06-04 11:00:00,64.4,44.8,29.99,West,270,11.4,11.4,49,0.00,,,0.00,meteobridge,2013-06-04 15:00:00,
2013-06-04 11:06:00,66.0,45.7,29.99,NW,315,3.8,3.8,48,0.00,,,0.00,meteobridge,2013-06-04 15:06:00,
2013-06-04 11:12:00,63.1,43.7,29.99,NW,315,8.3,13.0,49,0.00,,,0.00,meteobridge,2013-06-04 15:12:00,
2013-06-04 11:17:00,65.1,45.0,29.99,South,180,12.1,12.1,48,0.00,,,0.00,meteobridge,2013-06-04 15:17:00,
2013-06-04 11:23:00,64.4,44.2,29.99,North,0,9.2,9.8,48,0.00,,,0.00,meteobridge,2013-06-04 15:23:00,
2013-06-04 11:28:00,63.5,43.0,29.99,NW,315,8.3,10.7,47,0.00,,,0.00,meteobridge,2013-06-04 15:28:00,
2013-06-04 11:34:00,65.8,45.7,29.99,North,0,5.4,9.8,48,0.00,,,0.00,meteobridge,2013-06-04 15:34:00,
2013-06-04 11:40:00,63.9,42.6,29.99,North,0,9.2,15.2,46,0.00,,,0.00,meteobridge,2013-06-04 15:40:00,
2013-06-04 11:45:00,65.8,45.0,30.00,North,0,9.2,9.2,47,0.00,,,0.00,meteobridge,2013-06-04 15:45:00,
2013-06-04 11:51:00,65.5,44.8,29.99,SW,225,12.1,13.0,47,0.00,,,0.00,meteobridge,2013-06-04 15:51:00,
2013-06-04 11:56:00,68.2,46.0,29.99,NW,315,8.3,8.3,45,0.00,,,0.00,meteobridge,2013-06-04 15:56:00,
2013-06-04 12:02:00,68.0,46.4,29.99,SE,135,6.0,8.3,46,0.00,,,0.00,meteobridge,2013-06-04 16:02:00,
2013-06-04 12:07:00,69.6,47.3,29.99,West,270,6.0,6.9,45,0.00,,,0.00,meteobridge,2013-06-04 16:07:00,
2013-06-04 12:13:00,67.3,45.1,29.99,NW,315,8.3,8.3,45,0.00,,,0.00,meteobridge,2013-06-04 16:13:00,
2013-06-04 12:19:00,68.5,46.4,29.99,South,180,3.8,6.0,45,0.00,,,0.00,meteobridge,2013-06-04 16:19:00,
2013-06-04 12:24:00,71.8,48.0,29.98,South,180,6.0,7.6,43,0.00,,,0.00,meteobridge,2013-06-04 16:24:00,
2013-06-04 12:30:00,71.2,45.7,29.98,South,180,4.5,6.0,40,0.00,,,0.00,meteobridge,2013-06-04 16:30:00,
2013-06-04 12:35:00,69.3,46.4,29.98,NW,315,13.6,13.6,44,0.00,,,0.00,meteobridge,2013-06-04 16:35:00,
2013-06-04 12:41:00,67.8,45.7,29.98,NE,45,6.9,10.7,45,0.00,,,0.00,meteobridge,2013-06-04 16:41:00,
2013-06-04 12:46:00,70.9,47.3,29.98,North,0,3.8,3.8,43,0.00,,,0.00,meteobridge,2013-06-04 16:46:00,
2013-06-04 12:52:00,70.3,46.2,29.98,North,0,5.4,7.6,42,0.00,,,0.00,meteobridge,2013-06-04 16:52:00,
2013-06-04 12:57:00,71.2,45.7,29.98,East,90,2.2,3.8,40,0.00,,,0.00,meteobridge,2013-06-04 16:57:00,
2013-06-04 13:03:00,69.8,45.7,29.97,North,0,8.3,9.8,42,0.00,,,0.00,meteobridge,2013-06-04 17:03:00,
2013-06-04 13:09:00,70.5,46.9,29.97,West,270,6.9,12.1,43,0.00,,,0.00,meteobridge,2013-06-04 17:09:00,
2013-06-04 13:14:00,67.8,45.1,29.97,North,0,6.0,9.2,44,0.00,,,0.00,meteobridge,2013-06-04 17:14:00,
2013-06-04 13:20:00,70.9,46.6,29.97,NW,315,3.8,4.5,42,0.00,,,0.00,meteobridge,2013-06-04 17:20:00,
2013-06-04 13:25:00,73.9,47.5,29.97,West,270,2.2,3.1,39,0.00,,,0.00,meteobridge,2013-06-04 17:25:00,
2013-06-04 13:31:00,69.6,46.2,29.97,North,0,10.7,10.7,43,0.00,,,0.00,meteobridge,2013-06-04 17:31:00,
2013-06-04 13:37:00,70.0,43.9,29.97,West,270,5.4,9.8,39,0.00,,,0.00,meteobridge,2013-06-04 17:37:00,
2013-06-04 13:42:00,71.8,46.8,29.97,West,270,15.2,15.2,41,0.00,,,0.00,meteobridge,2013-06-04 17:42:00,
2013-06-04 13:48:00,69.8,43.0,29.97,North,0,7.6,11.4,38,0.00,,,0.00,meteobridge,2013-06-04 17:48:00,
2013-06-04 13:54:00,71.1,44.8,29.97,North,0,4.5,6.9,39,0.00,,,0.00,meteobridge,2013-06-04 17:54:00,
2013-06-04 13:59:00,71.1,44.8,29.96,North,0,5.4,9.8,39,0.00,,,0.00,meteobridge,2013-06-04 17:59:00,
2013-06-04 14:05:00,71.4,44.4,29.97,North,0,13.0,13.0,38,0.00,,,0.00,meteobridge,2013-06-04 18:05:00,
2013-06-04 14:11:00,71.1,43.5,29.96,NW,315,8.3,9.2,37,0.00,,,0.00,meteobridge,2013-06-04 18:11:00,
2013-06-04 14:16:00,71.4,43.7,29.96,West,270,4.5,7.6,37,0.00,,,0.00,meteobridge,2013-06-04 18:16:00,
2013-06-04 14:22:00,70.0,42.4,29.96,North,0,6.9,14.5,37,0.00,,,0.00,meteobridge,2013-06-04 18:22:00,
2013-06-04 14:28:00,73.9,46.0,29.96,NW,315,6.9,6.9,37,0.00,,,0.00,meteobridge,2013-06-04 18:28:00,
2013-06-04 14:33:00,70.7,42.4,29.97,North,0,12.1,15.2,36,0.00,,,0.00,meteobridge,2013-06-04 18:33:00,
2013-06-04 14:39:00,73.9,46.8,29.97,West,270,4.5,7.6,38,0.00,,,0.00,meteobridge,2013-06-04 18:39:00,
2013-06-04 14:44:00,72.1,43.7,29.97,NW,315,6.0,10.7,36,0.00,,,0.00,meteobridge,2013-06-04 18:44:00,
2013-06-04 14:50:00,75.0,46.9,29.96,North,0,7.6,8.3,37,0.00,,,0.00,meteobridge,2013-06-04 18:50:00,
2013-06-04 14:56:00,76.3,47.3,29.97,South,180,2.2,5.4,36,0.00,,,0.00,meteobridge,2013-06-04 18:56:00,
2013-06-04 15:01:00,74.8,45.3,29.97,North,0,7.6,7.6,35,0.00,,,0.00,meteobridge,2013-06-04 19:01:00,
2013-06-04 15:07:00,73.9,45.3,29.97,North,0,2.2,7.6,36,0.00,,,0.00,meteobridge,2013-06-04 19:07:00,
2013-06-04 15:13:00,77.9,46.4,29.97,West,270,4.5,4.5,33,0.00,,,0.00,meteobridge,2013-06-04 19:13:00,
2013-06-04 15:18:00,79.5,47.1,29.96,NW,315,6.9,6.9,32,0.00,,,0.00,meteobridge,2013-06-04 19:18:00,
2013-06-04 15:24:00,73.9,44.6,29.96,East,90,2.2,6.0,35,0.00,,,0.00,meteobridge,2013-06-04 19:24:00,
2013-06-04 15:30:00,77.2,46.6,29.96,West,270,3.8,3.8,34,0.00,,,0.00,meteobridge,2013-06-04 19:30:00,
2013-06-04 15:35:00,78.3,46.8,29.96,North,0,9.8,9.8,33,0.00,,,0.00,meteobridge,2013-06-04 19:35:00,
2013-06-04 15:41:00,78.3,49.8,29.96,West,270,6.0,6.0,37,0.00,,,0.00,meteobridge,2013-06-04 19:41:00,
2013-06-04 15:46:00,74.7,46.6,29.96,North,0,4.5,6.0,37,0.00,,,0.00,meteobridge,2013-06-04 19:46:00,
2013-06-04 15:52:00,74.8,45.3,29.96,North,0,6.0,6.0,35,0.00,,,0.00,meteobridge,2013-06-04 19:52:00,
2013-06-04 15:58:00,73.6,45.0,29.96,NW,315,10.7,10.7,36,0.00,,,0.00,meteobridge,2013-06-04 19:58:00,
2013-06-04 16:03:00,75.0,45.5,29.96,North,0,9.8,9.8,35,0.00,,,0.00,meteobridge,2013-06-04 20:03:00,
2013-06-04 16:09:00,75.7,43.0,29.96,West,270,4.5,5.4,31,0.00,,,0.00,meteobridge,2013-06-04 20:09:00,
2013-06-04 16:15:00,73.8,45.1,29.96,North,0,6.9,11.4,36,0.00,,,0.00,meteobridge,2013-06-04 20:15:00,
2013-06-04 16:20:00,73.2,43.2,29.96,West,270,9.8,9.8,34,0.00,,,0.00,meteobridge,2013-06-04 20:20:00,
2013-06-04 16:26:00,73.6,44.2,29.96,West,270,5.4,7.6,35,0.00,,,0.00,meteobridge,2013-06-04 20:26:00,
2013-06-04 16:32:00,74.1,44.8,29.96,West,270,8.3,8.3,35,0.00,,,0.00,meteobridge,2013-06-04 20:32:00,
2013-06-04 16:37:00,72.0,41.4,29.96,NW,315,11.4,13.6,33,0.00,,,0.00,meteobridge,2013-06-04 20:37:00,
2013-06-04 16:43:00,74.7,45.1,29.96,SW,225,6.0,6.0,35,0.00,,,0.00,meteobridge,2013-06-04 20:43:00,
2013-06-04 16:49:00,75.9,45.5,29.96,NW,315,7.6,7.6,34,0.00,,,0.00,meteobridge,2013-06-04 20:49:00,
2013-06-04 16:54:00,73.6,44.2,29.96,West,270,6.9,7.6,35,0.00,,,0.00,meteobridge,2013-06-04 20:54:00,
2013-06-04 17:00:00,73.8,44.4,29.96,North,0,8.3,8.3,35,0.00,,,0.00,meteobridge,2013-06-04 21:00:00,
2013-06-04 17:05:00,77.2,45.9,29.97,West,270,3.8,4.5,33,0.00,,,0.00,meteobridge,2013-06-04 21:05:00,
2013-06-04 17:11:00,75.6,45.1,29.97,North,0,7.6,7.6,34,0.00,,,0.00,meteobridge,2013-06-04 21:11:00,
2013-06-04 17:17:00,73.6,44.2,29.96,NW,315,15.2,15.2,35,0.00,,,0.00,meteobridge,2013-06-04 21:17:00,
2013-06-04 17:22:00,73.0,43.7,29.96,North,0,8.3,10.7,35,0.00,,,0.00,meteobridge,2013-06-04 21:22:00,
2013-06-04 17:28:00,73.6,45.7,29.97,North,0,5.4,6.9,37,0.00,,,0.00,meteobridge,2013-06-04 21:28:00,
2013-06-04 17:34:00,73.2,43.9,29.97,NW,315,4.5,6.0,35,0.00,,,0.00,meteobridge,2013-06-04 21:34:00,
2013-06-04 17:39:00,75.0,46.2,29.97,North,0,4.5,7.6,36,0.00,,,0.00,meteobridge,2013-06-04 21:39:00,
2013-06-04 17:45:00,72.9,43.5,29.97,North,0,9.8,9.8,35,0.00,,,0.00,meteobridge,2013-06-04 21:45:00,
2013-06-04 17:51:00,72.3,42.4,29.97,North,0,8.3,8.3,34,0.00,,,0.00,meteobridge,2013-06-04 21:51:00,
2013-06-04 17:56:00,72.1,43.0,29.97,North,0,3.1,6.9,35,0.00,,,0.00,meteobridge,2013-06-04 21:56:00,
2013-06-04 18:02:00,71.6,41.7,29.98,West,270,5.4,9.2,34,0.00,,,0.00,meteobridge,2013-06-04 22:02:00,
2013-06-04 18:07:00,72.0,42.1,29.98,NW,315,8.3,9.2,34,0.00,,,0.00,meteobridge,2013-06-04 22:07:00,
2013-06-04 18:13:00,71.4,42.3,29.98,North,0,8.3,9.2,35,0.00,,,0.00,meteobridge,2013-06-04 22:13:00,
2013-06-04 18:19:00,71.8,42.6,29.98,NE,45,3.8,6.0,35,0.00,,,0.00,meteobridge,2013-06-04 22:19:00,
2013-06-04 18:24:00,71.6,42.4,29.98,North,0,4.5,6.0,35,0.00,,,0.00,meteobridge,2013-06-04 22:24:00,
2013-06-04 18:30:00,71.8,43.3,29.98,West,270,3.1,5.4,36,0.00,,,0.00,meteobridge,2013-06-04 22:30:00,
2013-06-04 18:36:00,71.6,43.2,29.98,North,0,5.4,5.4,36,0.00,,,0.00,meteobridge,2013-06-04 22:36:00,
2013-06-04 18:41:00,71.1,42.8,29.98,West,270,5.4,6.9,36,0.00,,,0.00,meteobridge,2013-06-04 22:41:00,
2013-06-04 18:47:00,71.8,44.1,29.99,NW,315,6.0,6.0,37,0.00,,,0.00,meteobridge,2013-06-04 22:47:00,
2013-06-04 18:53:00,71.2,43.7,29.99,NW,315,5.4,5.4,37,0.00,,,0.00,meteobridge,2013-06-04 22:53:00,
2013-06-04 18:58:00,70.9,43.3,29.99,North,0,5.4,7.6,37,0.00,,,0.00,meteobridge,2013-06-04 22:58:00,
2013-06-04 19:04:00,70.9,44.8,29.99,West,270,3.8,4.5,39,0.00,,,0.00,meteobridge,2013-06-04 23:04:00,
2013-06-04 19:09:00,70.5,45.0,29.99,West,270,6.0,6.0,40,0.00,,,0.00,meteobridge,2013-06-04 23:09:00,
2013-06-04 19:15:00,70.3,45.0,29.99,NW,315,4.5,4.5,40,0.00,,,0.00,meteobridge,2013-06-04 23:15:00,
2013-06-04 19:21:00,70.3,44.2,29.99,North,0,6.0,6.0,39,0.00,,,0.00,meteobridge,2013-06-04 23:21:00,
2013-06-04 19:26:00,70.0,44.6,30.00,West,270,6.0,7.6,40,0.00,,,0.00,meteobridge,2013-06-04 23:26:00,
2013-06-04 19:32:00,70.5,45.7,30.00,East,90,2.2,4.5,41,0.00,,,0.00,meteobridge,2013-06-04 23:32:00,
2013-06-04 19:38:00,70.2,44.8,30.00,NW,315,2.2,3.1,40,0.00,,,0.00,meteobridge,2013-06-04 23:38:00,
2013-06-04 19:43:00,69.8,44.4,30.00,North,0,2.2,3.8,40,0.00,,,0.00,meteobridge,2013-06-04 23:43:00,
2013-06-04 19:49:00,68.5,45.1,30.01,West,270,2.2,2.2,43,0.00,,,0.00,meteobridge,2013-06-04 23:49:00,
2013-06-04 19:55:00,67.6,46.8,30.01,West,270,0.7,1.6,47,0.00,,,0.00,meteobridge,2013-06-04 23:55:00,
2013-06-04 20:00:00,67.5,46.0,30.01,West,270,3.8,3.8,46,0.00,,,0.00,meteobridge,2013-06-05 00:00:00,
2013-06-04 20:06:00,67.5,48.2,30.01,NW,315,1.6,1.6,50,0.00,,,0.00,meteobridge,2013-06-05 00:06:00,
2013-06-04 20:11:00,65.8,47.7,30.01,West,270,0.7,0.7,52,0.00,,,0.00,meteobridge,2013-06-05 00:11:00,
2013-06-04 20:17:00,65.1,46.0,30.01,NW,315,2.2,2.2,50,0.00,,,0.00,meteobridge,2013-06-05 00:17:00,
2013-06-04 20:23:00,65.5,46.9,30.01,West,270,0.0,0.0,51,0.00,,,0.00,meteobridge,2013-06-05 00:23:00,
2013-06-04 20:28:00,64.9,45.3,30.01,East,90,0.0,0.0,49,0.00,,,0.00,meteobridge,2013-06-05 00:28:00,
2013-06-04 20:34:00,63.9,45.3,30.02,East,90,0.0,0.0,51,0.00,,,0.00,meteobridge,2013-06-05 00:34:00,
2013-06-04 20:40:00,63.0,45.1,30.02,West,270,0.0,0.0,52,0.00,,,0.00,meteobridge,2013-06-05 00:40:00,
2013-06-04 20:45:00,61.5,46.2,30.02,West,270,0.0,0.0,57,0.00,,,0.00,meteobridge,2013-06-05 00:45:00,
2013-06-04 20:51:00,61.9,46.0,30.02,East,90,0.0,0.0,56,0.00,,,0.00,meteobridge,2013-06-05 00:51:00,
2013-06-04 20:56:00,62.4,46.9,30.03,South,180,0.0,0.0,57,0.00,,,0.00,meteobridge,2013-06-05 00:56:00,
2013-06-04 21:02:00,63.1,47.7,30.03,South,180,0.0,0.0,57,0.00,,,0.00,meteobridge,2013-06-05 01:02:00,
2013-06-04 21:07:00,60.6,45.7,30.03,South,180,0.0,0.0,58,0.00,,,0.00,meteobridge,2013-06-05 01:07:00,
2013-06-04 21:13:00,59.2,44.8,30.03,South,180,0.0,0.0,59,0.00,,,0.00,meteobridge,2013-06-05 01:13:00,
2013-06-04 21:18:00,59.7,45.0,30.03,North,0,0.0,0.0,58,0.00,,,0.00,meteobridge,2013-06-05 01:18:00,
2013-06-04 21:24:00,59.9,45.1,30.04,North,0,0.0,0.0,58,0.00,,,0.00,meteobridge,2013-06-05 01:24:00,
2013-06-04 21:30:00,59.4,45.5,30.04,North,0,0.0,0.0,60,0.00,,,0.00,meteobridge,2013-06-05 01:30:00,
2013-06-04 21:35:00,59.0,46.0,30.04,West,270,0.0,0.0,62,0.00,,,0.00,meteobridge,2013-06-05 01:35:00,
2013-06-04 21:41:00,57.9,45.9,30.05,West,270,0.0,0.0,64,0.00,,,0.00,meteobridge,2013-06-05 01:41:00,
2013-06-04 21:47:00,57.2,45.1,30.05,NE,45,0.0,0.0,64,0.00,,,0.00,meteobridge,2013-06-05 01:47:00,
2013-06-04 21:52:00,56.5,44.8,30.06,East,90,0.0,0.0,65,0.00,,,0.00,meteobridge,2013-06-05 01:52:00,
2013-06-04 21:58:00,55.8,44.6,30.06,East,90,0.0,0.0,66,0.00,,,0.00,meteobridge,2013-06-05 01:58:00,
2013-06-04 22:04:00,55.9,45.1,30.07,West,270,0.0,0.0,67,0.00,,,0.00,meteobridge,2013-06-05 02:04:00,
2013-06-04 22:09:00,55.4,44.6,30.07,West,270,0.0,0.0,67,0.00,,,0.00,meteobridge,2013-06-05 02:09:00,
2013-06-04 22:15:00,55.0,45.1,30.07,NE,45,0.0,0.0,69,0.00,,,0.00,meteobridge,2013-06-05 02:15:00,
2013-06-04 22:20:00,55.8,45.3,30.07,East,90,0.0,0.0,68,0.00,,,0.00,meteobridge,2013-06-05 02:20:00,
2013-06-04 22:26:00,55.4,45.3,30.07,NE,45,0.0,0.0,69,0.00,,,0.00,meteobridge,2013-06-05 02:26:00,
2013-06-04 22:31:00,55.4,45.3,30.07,North,0,0.0,0.7,69,0.00,,,0.00,meteobridge,2013-06-05 02:31:00,
2013-06-04 22:37:00,55.4,45.3,30.08,East,90,0.0,1.6,69,0.00,,,0.00,meteobridge,2013-06-05 02:37:00,
2013-06-04 22:42:00,55.0,45.5,30.08,East,90,0.0,0.0,70,0.00,,,0.00,meteobridge,2013-06-05 02:42:00,
2013-06-04 22:48:00,54.1,44.6,30.08,East,90,0.0,0.0,70,0.00,,,0.00,meteobridge,2013-06-05 02:48:00,
2013-06-04 22:54:00,53.8,44.6,30.09,East,90,0.0,0.0,71,0.00,,,0.00,meteobridge,2013-06-05 02:54:00,
2013-06-04 22:59:00,53.2,44.8,30.09,North,0,0.0,0.0,73,0.00,,,0.00,meteobridge,2013-06-05 02:59:00,
2013-06-04 23:05:00,52.9,44.8,30.09,North,0,0.7,1.6,74,0.00,,,0.00,meteobridge,2013-06-05 03:05:00,
2013-06-04 23:11:00,52.9,45.1,30.09,North,0,0.0,0.0,75,0.00,,,0.00,meteobridge,2013-06-05 03:11:00,
2013-06-04 23:16:00,52.7,45.0,30.09,East,90,0.0,0.7,75,0.00,,,0.00,meteobridge,2013-06-05 03:16:00,
2013-06-04 23:21:00,53.1,45.3,30.09,North,0,1.6,1.6,75,0.00,,,0.00,meteobridge,2013-06-05 03:21:00,
2013-06-04 23:26:00,53.1,45.3,30.09,North,0,0.0,0.0,75,0.00,,,0.00,meteobridge,2013-06-05 03:26:00,
2013-06-04 23:32:00,52.7,45.0,30.09,North,0,0.7,0.7,75,0.00,,,0.00,meteobridge,2013-06-05 03:32:00,
2013-06-04 23:37:00,52.9,45.1,30.10,North,0,0.0,0.0,75,0.00,,,0.00,meteobridge,2013-06-05 03:37:00,
2013-06-04 23:43:00,52.9,45.1,30.09,North,0,0.0,0.0,75,0.00,,,0.00,meteobridge,2013-06-05 03:43:00,
2013-06-04 23:49:00,52.3,44.6,30.09,North,0,0.0,0.0,75,0.00,,,0.00,meteobridge,2013-06-05 03:49:00,
2013-06-04 23:54:00,52.2,44.4,30.09,East,90,1.6,1.6,75,0.00,,,0.00,meteobridge,2013-06-05 03:54:00,